Time;durP1;ratioP1;P1;durP2;ratioP2;P2;SDS_P1;SDS_P2;PMS_P1;PMS_P2;Temp;Humidity;BMP_temperature;BMP_pressure;BME280_temperature;BME280_humidity;BME280_pressure;Samples;Min_cycle;Max_cycle;Signal;HPM_P1;HPM_P2
2022/01/30 00:00:15;;;;;;;15.73;4.18;;;;;;;8.46;59.16;101102.78;5105962;28;20046;-55
2022/01/30 00:02:51;;;;;;;10.10;3.53;;;;;;;8.58;58.33;101104.38;5099164;28;20052;-57
2022/01/30 00:05:19;;;;;;;12.07;3.55;;;;;;;8.55;58.76;101105.78;5100351;28;20130;-58
2022/01/30 00:07:46;;;;;;;13.32;3.95;;;;;;;8.60;59.03;101114.06;5112005;28;20492;-57
2022/01/30 00:10:15;;;;;;;13.25;3.55;;;;;;;8.66;58.59;101117.66;5107614;27;20055;-58
2022/01/30 00:12:48;;;;;;;16.90;3.33;;;;;;;8.67;58.34;101116.53;5097973;27;20067;-58
2022/01/30 00:15:17;;;;;;;13.93;3.17;;;;;;;8.68;59.12;101107.91;5101322;28;20047;-58
2022/01/30 00:17:50;;;;;;;14.90;3.40;;;;;;;8.69;58.71;101120.69;5096592;28;20054;-57
2022/01/30 00:20:21;;;;;;;18.23;3.92;;;;;;;8.59;59.19;101128.22;5097676;28;20043;-58
2022/01/30 00:22:55;;;;;;;12.32;3.78;;;;;;;8.69;59.10;101133.72;5097456;28;20527;-56
2022/01/30 00:25:34;;;;;;;11.18;3.35;;;;;;;8.68;59.36;101140.41;5111225;28;20051;-58
2022/01/30 00:28:06;;;;;;;13.93;3.67;;;;;;;8.76;59.20;101139.81;5091358;28;20499;-54
2022/01/30 00:30:35;;;;;;;12.88;3.65;;;;;;;8.76;58.95;101145.38;5117209;27;20055;-56
2022/01/30 00:33:03;;;;;;;12.15;4.15;;;;;;;8.70;59.00;101135.41;5107371;28;20058;-58
2022/01/30 00:35:33;;;;;;;19.02;4.05;;;;;;;8.74;58.83;101142.88;5096569;28;20048;-58
2022/01/30 00:38:00;;;;;;;15.05;3.90;;;;;;;8.77;59.30;101144.25;5105036;28;20044;-58
2022/01/30 00:40:30;;;;;;;11.43;3.83;;;;;;;8.63;60.33;101135.72;5113307;27;20054;-56
2022/01/30 00:42:57;;;;;;;11.15;3.72;;;;;;;8.65;59.97;101138.19;5110107;27;20421;-57
2022/01/30 00:45:24;;;;;;;15.20;4.18;;;;;;;8.67;60.06;101144.28;5110750;28;20400;-56
2022/01/30 00:47:52;;;;;;;13.80;4.22;;;;;;;8.69;60.08;101130.97;5112467;28;20062;-56
2022/01/30 00:50:19;;;;;;;14.90;4.43;;;;;;;8.57;60.67;101147.13;5111533;28;20058;-55
2022/01/30 00:52:49;;;;;;;12.65;3.65;;;;;;;8.58;60.38;101152.41;5114873;27;20059;-58
2022/01/30 00:55:17;;;;;;;;;;;;;;;8.53;59.94;101153.25;5106978;28;20058;-56
2022/01/30 00:57:46;;;;;;;14.55;3.88;;;;;;;8.44;60.70;101151.34;5112680;28;19927;-57
2022/01/30 01:00:15;;;;;;;13.48;3.58;;;;;;;8.42;59.94;101150.78;5112624;28;20047;-55
2022/01/30 01:02:42;;;;;;;18.45;4.18;;;;;;;8.28;60.66;101161.66;5098392;28;20067;-58
2022/01/30 01:05:10;;;;;;;19.98;5.05;;;;;;;8.19;60.43;101152.22;5080732;28;20527;-57
2022/01/30 01:07:42;;;;;;;20.77;4.57;;;;;;;8.09;60.35;101148.38;5080377;28;20063;-58
2022/01/30 01:10:15;;;;;;;20.20;4.70;;;;;;;8.08;59.97;101146.72;5075386;28;20052;-55
2022/01/30 01:13:08;;;;;;;17.20;4.43;;;;;;;7.95;61.31;101163.94;5092704;28;20070;-58
2022/01/30 01:24:07;;;;;;;10.88;3.70;;;;;;;7.41;61.50;101154.28;5046021;28;20084;-56
2022/01/30 01:26:36;;;;;;;16.75;3.50;;;;;;;7.39;62.21;101150.09;5070391;28;20059;-57
2022/01/30 01:29:05;;;;;;;21.02;4.30;;;;;;;7.30;61.96;101147.88;5091339;28;20058;-52
2022/01/30 01:31:34;;;;;;;18.73;4.45;;;;;;;7.28;62.40;101160.34;5090782;28;20052;-58
2022/01/30 01:34:26;;;;;;;16.23;4.22;;;;;;;7.11;61.71;101171.66;5090457;28;20052;-57
2022/01/30 01:36:53;;;;;;;13.82;3.88;;;;;;;7.18;61.97;101160.31;5088172;28;20044;-58
2022/01/30 01:39:21;;;;;;;15.95;3.45;;;;;;;7.20;62.14;101167.28;5090753;28;20508;-57
2022/01/30 01:41:48;;;;;;;15.57;3.78;;;;;;;7.32;61.88;101175.31;5093719;28;20476;-58
2022/01/30 01:44:16;;;;;;;11.70;3.47;;;;;;;7.37;62.08;101168.94;5088306;28;20055;-56
2022/01/30 01:46:48;;;;;;;16.98;3.55;;;;;;;7.50;61.70;101171.19;5090538;28;20045;-56
2022/01/30 01:49:21;;;;;;;17.55;4.38;;;;;;;7.58;61.15;101167.84;5092875;28;20056;-58
2022/01/30 01:52:00;;;;;;;17.38;4.03;;;;;;;7.61;61.17;101161.75;5090806;28;20059;-58
2022/01/30 01:54:28;;;;;;;14.43;3.83;;;;;;;7.67;61.05;101157.03;5090065;28;20047;-57
2022/01/30 01:56:56;;;;;;;18.05;4.00;;;;;;;7.77;61.26;101161.72;5089242;28;20048;-56
2022/01/30 01:59:23;;;;;;;15.70;4.20;;;;;;;7.66;60.87;101164.50;5086056;28;20055;-55
2022/01/30 02:01:53;;;;;;;17.70;4.55;;;;;;;7.78;60.49;101166.19;5079696;28;20059;-58
2022/01/30 02:04:21;;;;;;;14.60;4.00;;;;;;;7.80;61.09;101172.28;5112604;28;20060;-57
2022/01/30 02:06:49;;;;;;;14.02;3.72;;;;;;;7.84;60.43;101176.16;5110225;28;20055;-55
2022/01/30 02:09:19;;;;;;;21.13;4.50;;;;;;;7.76;61.16;101179.50;5111182;28;20047;-57
2022/01/30 02:11:47;;;;;;;11.90;3.97;;;;;;;7.81;60.43;101183.09;5126423;28;20047;-56
2022/01/30 02:14:37;;;;;;;15.75;4.35;;;;;;;7.64;60.93;101186.16;5113129;28;20121;-56
2022/01/30 02:25:38;;;;;;;17.30;4.80;;;;;;;7.62;62.18;101198.59;5053341;28;20064;-57
2022/01/30 02:28:10;;;;;;;18.35;4.28;;;;;;;7.69;61.59;101193.63;5112666;28;20055;-59
2022/01/30 02:30:43;;;;;;;21.65;4.88;;;;;;;7.73;61.66;101205.84;5110916;28;20055;-59
2022/01/30 02:33:10;;;;;;;18.15;4.43;;;;;;;7.83;61.53;101182.81;5109309;28;20492;-57
2022/01/30 02:35:37;;;;;;;18.25;3.95;;;;;;;7.87;60.83;101173.66;5114706;28;20043;-57
2022/01/30 02:38:08;;;;;;;18.02;4.28;;;;;;;7.78;61.37;101178.09;5110012;28;20052;-58
2022/01/30 02:40:40;;;;;;;21.33;4.70;;;;;;;7.88;61.22;101177.25;5119802;28;20047;-59
2022/01/30 02:43:07;;;;;;;17.20;4.45;;;;;;;7.88;60.56;101180.03;5117369;28;20054;-57
2022/01/30 02:45:38;;;;;;;19.75;4.22;;;;;;;7.91;61.03;101173.91;5111170;28;20051;-53
2022/01/30 02:48:16;;;;;;;15.75;3.88;;;;;;;7.83;61.10;101183.66;5111431;28;20052;-57
2022/01/30 02:50:55;;;;;;;18.70;4.53;;;;;;;7.88;60.42;101186.41;5115641;27;20062;-53
2022/01/30 02:53:30;;;;;;;15.60;3.63;;;;;;;7.79;61.02;101181.69;5113197;27;20051;-57
2022/01/30 02:55:58;;;;;;;16.73;4.25;;;;;;;7.67;61.07;101185.59;5116146;27;20050;-55
2022/01/30 02:58:26;;;;;;;17.67;5.05;;;;;;;7.55;60.42;101186.97;5118505;27;20427;-56
2022/01/30 03:00:53;;;;;;;17.80;4.35;;;;;;;7.36;61.55;101190.28;5110427;28;20054;-57
2022/01/30 03:03:20;;;;;;;19.05;4.32;;;;;;;7.34;61.49;101194.44;5114188;28;20047;-55
2022/01/30 03:05:47;;;;;;;14.77;4.07;;;;;;;7.22;61.91;101189.97;5114973;28;20051;-57
2022/01/30 03:08:15;;;;;;;24.77;5.00;;;;;;;7.22;62.08;101189.97;5114804;27;20052;-56
2022/01/30 03:10:43;;;;;;;18.73;4.60;;;;;;;7.16;61.97;101193.00;5118447;27;20056;-56
2022/01/30 03:13:11;;;;;;;21.75;4.90;;;;;;;7.11;62.97;101202.16;5120784;27;20067;-56
2022/01/30 03:15:38;;;;;;;19.92;5.00;;;;;;;7.01;62.65;101202.94;5114553;28;20051;-59
2022/01/30 03:18:05;;;;;;;24.40;5.35;;;;;;;6.94;63.34;101193.25;5116221;27;20050;-52
2022/01/30 03:20:33;;;;;;;16.25;4.53;;;;;;;6.94;63.68;101190.47;5116741;27;20059;-54
2022/01/30 03:23:02;;;;;;;16.15;4.40;;;;;;;6.94;63.85;101204.31;5113996;27;20400;-58
2022/01/30 03:25:32;;;;;;;18.70;4.32;;;;;;;7.01;64.42;101204.88;5115017;27;20495;-54
2022/01/30 03:28:03;;;;;;;16.67;4.35;;;;;;;7.08;63.55;101205.47;5111842;28;20471;-54
2022/01/30 03:30:32;;;;;;;20.73;5.53;;;;;;;7.02;63.59;101206.56;5113792;28;20048;-58
2022/01/30 03:32:59;;;;;;;17.17;4.95;;;;;;;6.97;64.47;101214.84;5098556;27;20044;-57
2022/01/30 03:35:27;;;;;;;16.42;4.40;;;;;;;6.95;63.64;101217.06;5118597;27;20999;-57
2022/01/30 03:37:54;;;;;;;21.08;5.00;;;;;;;6.96;64.07;101213.19;5104480;28;20051;-57
2022/01/30 03:40:22;;;;;;;20.30;5.28;;;;;;;6.98;64.70;101214.56;5107036;27;20102;-58
2022/01/30 03:42:52;;;;;;;23.48;5.57;;;;;;;7.04;64.11;101220.97;5105451;27;20056;-57
2022/01/30 03:45:21;;;;;;;17.15;4.97;;;;;;;6.96;64.43;101224.28;5107121;28;20052;-58
2022/01/30 03:47:51;;;;;;;17.13;4.73;;;;;;;6.87;64.48;101243.34;5105042;27;20043;-58
2022/01/30 03:50:18;;;;;;;20.77;5.10;;;;;;;6.89;64.42;101239.19;5101204;28;20849;-54
2022/01/30 03:52:46;;;;;;;23.88;5.13;;;;;;;6.96;64.17;101240.88;5104396;28;20045;-55
2022/01/30 03:55:13;;;;;;;17.30;3.97;;;;;;;6.98;64.25;101250.59;5113271;28;20554;-56
2022/01/30 03:57:40;;;;;;;21.73;5.10;;;;;;;7.10;63.78;101247.59;5104613;28;20047;-56
2022/01/30 04:00:09;;;;;;;21.35;5.65;;;;;;;7.10;63.48;101248.41;5111406;27;20403;-56
2022/01/30 04:02:38;;;;;;;19.88;4.55;;;;;;;7.17;62.95;101250.09;5113905;27;20492;-58
2022/01/30 04:05:06;;;;;;;14.18;4.50;;;;;;;7.14;63.04;101247.84;5113430;27;20062;-57
2022/01/30 04:07:34;;;;;;;23.02;6.63;;;;;;;7.24;63.06;101256.19;5105916;28;20051;-59
2022/01/30 04:10:02;;;;;;;17.95;5.07;;;;;;;7.27;62.82;101244.59;5106861;27;20059;-57
2022/01/30 04:12:30;;;;;;;20.10;5.00;;;;;;;7.25;62.10;101242.09;5112193;28;20051;-54
2022/01/30 04:14:57;;;;;;;19.67;3.83;;;;;;;7.30;62.40;101249.56;5118742;27;20047;-53
2022/01/30 04:17:25;;;;;;;13.07;4.03;;;;;;;7.38;62.19;101240.72;5098663;28;20048;-54
2022/01/30 04:19:54;;;;;;;22.98;4.70;;;;;;;7.35;61.96;101249.59;5094693;27;20048;-58
2022/01/30 04:22:22;;;;;;;17.53;4.17;;;;;;;7.35;62.07;101252.38;5099830;28;20157;-56
2022/01/30 04:24:49;;;;;;;18.58;4.28;;;;;;;7.22;62.16;101248.16;5111495;28;20063;-54
2022/01/30 04:27:16;;;;;;;17.30;4.18;;;;;;;7.34;62.15;101259.00;5103216;28;20043;-58
2022/01/30 04:29:48;;;;;;;15.43;4.45;;;;;;;7.29;62.01;101268.16;5111692;28;20499;-58
2022/01/30 04:32:16;;;;;;;20.45;4.05;;;;;;;7.32;62.68;101266.75;5111189;28;20062;-56
2022/01/30 04:34:51;;;;;;;20.05;4.60;;;;;;;7.32;62.59;101264.00;5109593;28;20043;-59
2022/01/30 04:37:30;;;;;;;12.57;4.35;;;;;;;7.30;62.04;101260.66;5105109;28;20050;-58
2022/01/30 04:54:14;;;;;;;22.30;4.60;;;;;;;7.37;61.26;101279.78;5108415;28;20514;-56
2022/01/30 04:59:46;;;;;;;15.75;4.18;;;;;;;7.41;62.15;101264.28;5079562;28;20063;-59
2022/01/30 05:02:32;;;;;;;17.23;4.50;;;;;;;7.38;61.73;101264.84;5101478;28;20499;-57
2022/01/30 05:05:21;;;;;;;15.80;4.22;;;;;;;7.29;62.32;101268.16;5111465;28;20051;-58
2022/01/30 05:07:51;;;;;;;16.88;3.60;;;;;;;7.39;62.20;101274.81;5107770;28;20074;-56
2022/01/30 05:10:20;;;;;;;16.98;4.78;;;;;;;7.36;61.80;101278.13;5105420;27;20051;-57
2022/01/30 05:12:51;;;;;;;17.67;4.30;;;;;;;7.49;61.20;101286.75;5108639;28;20099;-56
2022/01/30 05:15:20;;;;;;;16.35;4.28;;;;;;;7.50;61.53;101288.44;5110626;27;20054;-57
2022/01/30 05:17:50;;;;;;;16.75;3.35;;;;;;;7.50;60.32;101295.91;5108834;28;20050;-56
2022/01/30 05:20:18;;;;;;;15.82;4.07;;;;;;;7.31;61.40;101298.38;5112724;28;20052;-54
2022/01/30 05:22:46;;;;;;;17.17;4.15;;;;;;;7.45;60.61;101304.22;5103369;28;20492;-56
2022/01/30 05:25:15;;;;;;;16.95;3.45;;;;;;;7.45;60.77;101295.88;5086224;28;20063;-59
2022/01/30 05:27:44;;;;;;;13.03;3.43;;;;;;;7.51;59.85;101303.94;5109941;28;20044;-53
2022/01/30 05:30:12;;;;;;;13.30;3.17;;;;;;;7.55;60.11;101306.19;5104274;28;20052;-58
2022/01/30 05:32:40;;;;;;;13.02;3.15;;;;;;;7.40;60.43;101312.53;5105895;28;20470;-55
2022/01/30 05:35:09;;;;;;;12.93;4.55;;;;;;;7.29;60.95;101318.03;5104270;28;20416;-58
2022/01/30 05:37:39;;;;;;;16.40;4.15;;;;;;;7.36;61.55;101333.56;5110197;28;20047;-57
2022/01/30 05:40:09;;;;;;;14.25;3.25;;;;;;;7.35;62.29;101323.56;5110496;28;20051;-58
2022/01/30 05:42:38;;;;;;;20.65;3.55;;;;;;;7.39;62.62;101333.00;5110027;28;20385;-58
2022/01/30 05:45:16;;;;;;;11.20;3.20;;;;;;;7.40;62.29;101331.91;5102633;28;20403;-59
2022/01/30 05:47:48;;;;;;;15.85;3.95;;;;;;;7.32;62.30;101338.81;5100704;28;20476;-57
2022/01/30 05:50:16;;;;;;;19.10;3.88;;;;;;;7.25;61.81;101339.06;5120705;28;20055;-60
2022/01/30 05:52:44;;;;;;;14.77;3.30;;;;;;;7.26;62.44;101332.41;5110727;28;20048;-56
2022/01/30 05:55:11;;;;;;;13.57;3.28;;;;;;;7.25;62.39;101336.28;5090845;28;20058;-59
2022/01/30 05:57:38;;;;;;;16.52;3.75;;;;;;;7.33;61.99;101332.19;5101153;28;20059;-58
2022/01/30 06:00:13;;;;;;;13.90;3.53;;;;;;;7.22;62.40;101352.63;5102441;28;20476;-56
2022/01/30 06:02:41;;;;;;;15.95;4.57;;;;;;;7.28;61.21;101344.06;5108557;28;20401;-57
2022/01/30 06:05:14;;;;;;;11.40;3.00;;;;;;;7.25;61.59;101350.16;5111390;28;20062;-55
2022/01/30 06:07:48;;;;;;;15.73;4.10;;;;;;;7.35;61.26;101356.81;5108920;28;20431;-52
2022/01/30 06:10:15;;;;;;;14.30;3.42;;;;;;;7.39;61.27;101350.50;5103319;28;20078;-53
2022/01/30 06:12:42;;;;;;;17.90;4.15;;;;;;;7.31;60.95;101348.25;5107618;28;20048;-58
2022/01/30 06:15:13;;;;;;;13.88;3.42;;;;;;;7.37;61.32;101354.63;5104343;28;20066;-55
2022/01/30 06:17:40;;;;;;;14.95;3.97;;;;;;;7.35;60.87;101357.69;5099815;28;20054;-58
2022/01/30 06:20:09;;;;;;;13.95;3.30;;;;;;;7.39;60.99;101352.41;5109931;28;20051;-55
2022/01/30 06:22:38;;;;;;;16.13;3.63;;;;;;;7.38;60.58;101351.59;5109074;28;20048;-59
2022/01/30 06:25:06;;;;;;;21.38;4.22;;;;;;;7.38;60.40;101359.06;5107311;28;20480;-56
2022/01/30 06:27:34;;;;;;;15.63;4.22;;;;;;;7.35;60.26;101351.28;5113729;28;20053;-55
2022/01/30 06:30:01;;;;;;;13.93;3.58;;;;;;;7.25;61.38;101366.78;5110559;28;20058;-55
2022/01/30 06:32:30;;;;;;;12.98;3.58;;;;;;;7.39;60.78;101371.81;5105036;28;20056;-57
2022/01/30 06:34:57;;;;;;;14.18;3.65;;;;;;;7.42;60.23;101368.50;5103018;28;20412;-55
2022/01/30 06:37:25;;;;;;;11.98;4.40;;;;;;;7.44;60.46;101374.63;5103016;28;20059;-58
2022/01/30 06:39:52;;;;;;;14.18;3.97;;;;;;;7.42;60.40;101372.13;5097045;28;20487;-58
2022/01/30 06:42:19;;;;;;;14.50;3.70;;;;;;;7.42;60.38;101361.03;5094303;28;20056;-58
2022/01/30 06:44:47;;;;;;;18.00;3.30;;;;;;;7.40;60.53;101362.41;5090531;28;20411;-57
2022/01/30 06:47:15;;;;;;;12.98;3.55;;;;;;;7.25;60.73;101372.31;5096287;28;20107;-58
2022/01/30 06:49:44;;;;;;;13.80;3.72;;;;;;;7.27;60.90;101374.81;5116083;27;20047;-58
2022/01/30 06:52:11;;;;;;;13.65;3.63;;;;;;;7.11;61.61;101377.50;5125449;27;20423;-58
2022/01/30 06:54:39;;;;;;;18.23;3.20;;;;;;;7.18;61.10;101376.44;5097251;28;20043;-58
2022/01/30 06:57:07;;;;;;;13.35;3.33;;;;;;;7.18;60.89;101382.81;5108097;28;20048;-58
2022/01/30 06:59:35;;;;;;;11.75;3.10;;;;;;;7.10;61.36;101394.41;5099121;28;20050;-58
2022/01/30 07:02:03;;;;;;;18.05;3.78;;;;;;;7.11;61.39;101393.31;5105002;28;20052;-58
2022/01/30 07:04:30;;;;;;;17.45;4.40;;;;;;;7.25;60.61;101400.03;5103372;28;20044;-59
2022/01/30 07:07:03;;;;;;;11.38;3.67;;;;;;;7.22;61.39;101408.88;5099176;28;20412;-56
2022/01/30 07:09:33;;;;;;;13.05;3.67;;;;;;;7.18;61.16;101407.75;5096492;28;20048;-58
2022/01/30 07:12:01;;;;;;;14.75;3.85;;;;;;;7.10;61.33;101405.50;5105701;28;20061;-56
2022/01/30 07:14:29;;;;;;;16.20;4.47;;;;;;;7.03;61.87;101415.97;5112283;28;20048;-55
2022/01/30 07:16:56;;;;;;;23.65;4.53;;;;;;;7.06;61.49;101421.81;5103953;28;20683;-53
2022/01/30 07:19:23;;;;;;;14.60;4.35;;;;;;;7.13;61.54;101429.06;5098318;28;20055;-56
2022/01/30 07:21:51;;;;;;;15.05;4.15;;;;;;;7.03;61.47;101435.34;5116184;27;20044;-57
2022/01/30 07:24:20;;;;;;;16.63;4.30;;;;;;;6.94;62.28;101426.72;5101111;28;20051;-57
2022/01/30 07:26:47;;;;;;;13.73;4.57;;;;;;;6.80;61.87;101440.16;5103436;28;20056;-57
2022/01/30 07:29:15;;;;;;;21.02;5.03;;;;;;;6.86;61.91;101441.06;5095047;28;20040;-56
2022/01/30 07:31:42;;;;;;;22.58;4.88;;;;;;;6.77;62.30;101449.03;5101522;28;20055;-58
2022/01/30 07:34:10;;;;;;;16.00;4.80;;;;;;;6.85;61.29;101445.75;5091339;28;20479;-55
2022/01/30 07:36:39;;;;;;;12.07;3.35;;;;;;;6.81;61.94;101447.41;5111527;28;20047;-56
2022/01/30 07:39:08;;;;;;;16.20;3.88;;;;;;;6.83;62.32;101441.59;5090735;28;20480;-58
2022/01/30 07:41:37;;;;;;;16.35;3.90;;;;;;;6.93;61.55;101447.22;5104806;28;20435;-57
2022/01/30 07:44:06;;;;;;;15.30;3.80;;;;;;;6.85;61.83;101450.47;5114752;27;20051;-56
2022/01/30 07:46:33;;;;;;;14.03;3.63;;;;;;;7.00;62.06;101446.97;5100477;28;20056;-54
2022/01/30 07:49:01;;;;;;;11.95;4.68;;;;;;;7.04;61.68;101450.88;5092789;28;20063;-57
2022/01/30 07:51:28;;;;;;;17.08;4.68;;;;;;;7.03;62.29;101449.22;5127439;27;20522;-56
2022/01/30 07:53:56;;;;;;;22.77;4.18;;;;;;;7.09;61.76;101453.69;5107712;27;20412;-57
2022/01/30 07:56:23;;;;;;;17.77;4.72;;;;;;;7.03;61.78;101463.88;5110997;28;20062;-55
2022/01/30 07:58:52;;;;;;;15.95;4.30;;;;;;;7.14;61.12;101464.81;5108306;28;20048;-55
2022/01/30 08:01:20;;;;;;;14.48;3.65;;;;;;;7.18;60.91;101463.19;5113642;28;20412;-55
2022/01/30 08:03:47;;;;;;;14.45;4.35;;;;;;;7.14;61.17;101463.97;5109696;27;20236;-58
2022/01/30 08:06:14;;;;;;;17.55;4.90;;;;;;;7.20;61.10;101468.44;5125930;27;20044;-57
2022/01/30 08:08:42;;;;;;;16.70;4.22;;;;;;;7.21;60.76;101476.47;5107077;28;20044;-55
2022/01/30 08:11:09;;;;;;;13.82;3.58;;;;;;;7.15;60.56;101480.31;5111038;27;20051;-58
2022/01/30 08:13:37;;;;;;;14.80;3.70;;;;;;;7.18;60.17;101477.03;5097836;28;20579;-58
2022/01/30 08:16:06;;;;;;;14.40;3.88;;;;;;;7.22;60.71;101475.38;5097683;28;20061;-58
2022/01/30 08:18:37;;;;;;;17.83;4.25;;;;;;;7.44;60.71;101491.88;5108711;28;20044;-53
2022/01/30 08:21:05;;;;;;;16.52;4.53;;;;;;;7.55;60.44;101483.63;5111918;27;20047;-51
2022/01/30 08:23:33;;;;;;;19.40;4.22;;;;;;;7.59;60.39;101474.47;5103444;28;20055;-54
2022/01/30 08:26:01;;;;;;;17.02;3.85;;;;;;;7.83;59.62;101476.78;5094635;28;20048;-52
2022/01/30 08:28:28;;;;;;;18.42;4.65;;;;;;;7.88;58.28;101479.59;5105344;28;20408;-57
2022/01/30 08:30:55;;;;;;;17.63;5.00;;;;;;;7.70;58.89;101483.69;5104081;28;20055;-58
2022/01/30 08:33:24;;;;;;;16.38;4.35;;;;;;;7.91;59.02;101487.38;5110644;28;20052;-58
2022/01/30 08:35:52;;;;;;;17.73;3.75;;;;;;;7.83;58.66;101488.75;5109268;27;20052;-56
2022/01/30 08:38:20;;;;;;;17.08;4.68;;;;;;;7.93;57.77;101488.75;5099550;28;20043;-58
2022/01/30 08:40:48;;;;;;;15.95;4.50;;;;;;;7.96;57.70;101487.41;5100064;28;20055;-58
2022/01/30 08:43:17;;;;;;;16.40;4.18;;;;;;;8.11;57.34;101489.41;5102043;27;20048;-55
2022/01/30 08:45:44;;;;;;;17.13;4.93;;;;;;;8.25;57.28;101496.09;5106998;28;20056;-58
2022/01/30 08:48:11;;;;;;;15.10;4.35;;;;;;;9.03;55.96;101486.75;5102046;27;20056;-55
2022/01/30 08:50:40;;;;;;;15.30;3.95;;;;;;;10.79;51.96;101490.47;5105068;28;20385;-58
2022/01/30 08:53:08;;;;;;;12.33;3.70;;;;;;;12.26;49.08;101483.56;5087784;27;20055;-57
2022/01/30 08:55:35;;;;;;;13.68;4.10;;;;;;;13.24;45.93;101489.28;5103550;28;20047;-57
2022/01/30 08:58:07;;;;;;;15.85;4.22;;;;;;;14.13;43.69;101479.69;5109283;28;20047;-58
2022/01/30 09:00:36;;;;;;;12.75;3.90;;;;;;;15.13;40.22;101470.28;5098351;28;20054;-57
2022/01/30 09:03:04;;;;;;;12.03;4.00;;;;;;;15.97;39.09;101460.09;5110923;28;20070;-55
2022/01/30 09:05:32;;;;;;;15.68;4.15;;;;;;;16.99;37.06;101458.84;5101524;28;20048;-57
2022/01/30 09:08:04;;;;;;;11.82;3.90;;;;;;;17.90;35.31;101455.88;5105084;28;20385;-57
2022/01/30 09:10:34;;;;;;;13.63;3.60;;;;;;;18.59;33.94;101440.44;5102822;28;20051;-57
2022/01/30 09:13:01;;;;;;;11.77;4.05;;;;;;;19.45;32.04;101426.59;5103938;28;20055;-59
2022/01/30 09:15:29;;;;;;;14.15;4.10;;;;;;;20.53;29.62;101430.03;5091248;28;20051;-57
2022/01/30 09:17:57;;;;;;;12.15;3.80;;;;;;;21.11;29.00;101426.84;5098782;28;20501;-58
2022/01/30 09:20:25;;;;;;;14.32;4.72;;;;;;;20.59;28.57;101422.94;5102351;28;20047;-54
2022/01/30 09:22:53;;;;;;;12.60;4.75;;;;;;;21.28;27.94;101420.00;5106851;28;20066;-58
2022/01/30 09:25:25;;;;;;;16.70;4.55;;;;;;;18.79;30.86;101426.69;5115432;27;20494;-59
2022/01/30 09:27:52;;;;;;;13.07;3.95;;;;;;;17.94;31.47;101425.84;5105317;27;20047;-58
2022/01/30 09:30:19;;;;;;;18.67;4.85;;;;;;;17.07;33.07;101420.56;5111857;28;20044;-59
2022/01/30 09:32:47;;;;;;;17.15;4.35;;;;;;;15.96;35.00;101432.34;5110211;28;20050;-58
2022/01/30 09:35:14;;;;;;;11.98;3.75;;;;;;;15.88;35.52;101428.34;5105953;28;20058;-56
2022/01/30 09:37:44;;;;;;;12.32;4.07;;;;;;;17.43;33.19;101428.56;5103747;27;20054;-58
2022/01/30 09:40:13;;;;;;;18.35;4.88;;;;;;;16.68;33.98;101442.13;5106072;28;20051;-57
2022/01/30 09:42:45;;;;;;;12.30;3.83;;;;;;;16.53;33.92;101446.28;5102099;28;20412;-56
2022/01/30 09:45:14;;;;;;;13.38;4.03;;;;;;;16.17;34.61;101455.84;5108071;27;20491;-58
2022/01/30 09:47:43;;;;;;;11.25;3.88;;;;;;;17.92;32.90;101447.09;5117172;27;20048;-57
2022/01/30 09:50:11;;;;;;;13.45;4.00;;;;;;;19.35;30.46;101455.31;5107326;28;20492;-58
2022/01/30 09:52:38;;;;;;;15.80;5.43;;;;;;;18.69;31.59;101444.00;5096677;28;20059;-59
2022/01/30 09:55:08;;;;;;;18.30;4.90;;;;;;;19.38;30.46;101434.84;5096298;28;20503;-58
2022/01/30 09:57:36;;;;;;;13.10;4.05;;;;;;;17.87;32.36;101445.31;5113721;27;20059;-57
2022/01/30 10:00:06;;;;;;;13.02;4.00;;;;;;;17.68;32.83;101448.53;5102749;28;20052;-56
2022/01/30 10:02:33;;;;;;;13.65;3.83;;;;;;;17.35;33.04;101442.69;5102521;28;20508;-57
2022/01/30 10:05:03;;;;;;;16.67;5.50;;;;;;;18.25;32.18;101450.03;5095163;28;20059;-55
2022/01/30 10:07:51;;;;;;;11.27;4.40;;;;;;;17.78;32.48;101444.47;5099969;28;20043;-56
2022/01/30 10:10:23;;;;;;;15.93;4.18;;;;;;;18.49;31.49;101443.69;5093988;28;20058;-56
2022/01/30 10:13:08;;;;;;;14.90;4.60;;;;;;;18.68;31.22;101443.19;5081191;28;20055;-53
2022/01/30 10:15:57;;;;;;;15.02;4.22;;;;;;;17.50;32.73;101450.56;5096324;28;20055;-55
2022/01/30 10:18:26;;;;;;;;;;;;;;;16.99;33.28;101453.22;5095159;28;20056;-55
2022/01/30 10:20:53;;;;;;;16.30;4.50;;;;;;;19.45;29.85;101452.03;5095393;28;19919;-55
2022/01/30 10:23:31;;;;;;;13.20;4.47;;;;;;;20.66;28.57;101459.13;5095102;28;20059;-54
2022/01/30 10:26:01;;;;;;;12.07;3.90;;;;;;;21.25;27.69;101469.72;5096385;28;20059;-58
2022/01/30 10:28:31;;;;;;;15.25;4.40;;;;;;;20.79;28.20;101465.56;5093291;28;20056;-58
2022/01/30 10:31:01;;;;;;;;;;;;;;;18.75;30.39;101465.19;5091864;28;20044;-54
2022/01/30 10:33:40;;;;;;;15.60;4.60;;;;;;;17.68;32.15;101467.41;5094259;28;19931;-56
2022/01/30 10:36:09;;;;;;;18.70;4.88;;;;;;;17.27;32.57;101469.72;5092667;28;20063;-57
2022/01/30 10:38:39;;;;;;;13.68;4.80;;;;;;;17.18;32.82;101468.91;5092085;28;20423;-58
2022/01/30 10:41:13;;;;;;;16.02;5.07;;;;;;;19.82;29.32;101462.56;5093771;28;20050;-59
2022/01/30 10:43:54;;;;;;;15.25;4.43;;;;;;;21.04;26.52;101458.63;5093121;28;20079;-58
2022/01/30 10:46:24;;;;;;;12.13;4.88;;;;;;;19.75;29.11;101468.00;5093560;28;20070;-53
2022/01/30 10:48:55;;;;;;;14.38;4.88;;;;;;;18.04;30.73;101441.56;5100017;28;20052;-53
2022/01/30 10:51:23;;;;;;;13.55;4.30;;;;;;;17.60;31.56;101443.75;5089214;28;20067;-54
2022/01/30 10:53:51;;;;;;;17.23;5.35;;;;;;;16.50;33.41;101455.38;5088407;28;20071;-58
2022/01/30 10:56:19;;;;;;;14.43;4.35;;;;;;;15.74;34.71;101456.56;5095255;28;20408;-57
2022/01/30 10:59:11;;;;;;;14.48;4.28;;;;;;;20.13;28.93;101461.94;5092600;28;20469;-57
2022/01/30 11:01:41;;;;;;;16.17;5.07;;;;;;;20.35;26.83;101451.28;5090177;28;20056;-57
2022/01/30 11:04:08;;;;;;;15.25;4.95;;;;;;;21.58;25.67;101434.56;5101754;28;20056;-58
2022/01/30 11:06:40;;;;;;;14.55;5.05;;;;;;;22.48;24.65;101448.03;5091728;28;20075;-53
2022/01/30 11:09:11;;;;;;;16.60;4.88;;;;;;;20.18;26.67;101470.22;5090913;28;20059;-55
2022/01/30 11:11:42;;;;;;;17.17;5.13;;;;;;;19.35;28.08;101460.16;5093423;28;20048;-55
2022/01/30 11:14:20;;;;;;;16.63;4.95;;;;;;;18.40;29.49;101471.16;5094494;28;20504;-57
2022/01/30 11:16:59;;;;;;;22.55;5.72;;;;;;;17.48;30.09;101463.34;5094130;28;20052;-57
2022/01/30 11:19:27;;;;;;;15.93;5.25;;;;;;;16.45;31.31;101472.41;5109441;28;20047;-55
2022/01/30 11:21:58;;;;;;;16.33;5.10;;;;;;;15.57;32.69;101471.34;5106145;28;20051;-57
2022/01/30 11:24:27;;;;;;;17.40;5.47;;;;;;;14.40;34.75;101478.81;5101452;28;20408;-58
2022/01/30 11:26:55;;;;;;;19.50;4.82;;;;;;;13.83;35.81;101480.34;5093947;28;20051;-58
2022/01/30 11:29:22;;;;;;;14.82;4.65;;;;;;;13.50;36.06;101477.63;5108464;28;20052;-58
2022/01/30 11:31:51;;;;;;;15.55;5.07;;;;;;;13.15;36.80;101477.13;5113499;28;20060;-58
2022/01/30 11:34:19;;;;;;;19.58;5.70;;;;;;;12.72;37.15;101475.31;5097612;28;20067;-53
2022/01/30 11:36:48;;;;;;;17.63;5.15;;;;;;;12.40;37.91;101476.13;5094050;28;20048;-55
2022/01/30 11:39:18;;;;;;;18.30;5.35;;;;;;;12.22;38.61;101494.53;5093583;28;20059;-57
2022/01/30 11:42:12;;;;;;;17.98;4.95;;;;;;;11.84;39.35;101482.44;5093014;28;20493;-57
2022/01/30 11:44:40;;;;;;;17.60;4.68;;;;;;;11.72;39.39;101475.31;5093659;28;20052;-57
2022/01/30 11:47:20;;;;;;;24.13;5.90;;;;;;;11.62;39.50;101469.84;5106204;28;20062;-58
2022/01/30 11:49:49;;;;;;;;;;;;;;;11.38;39.63;101465.09;5111761;28;20059;-56
2022/01/30 11:52:18;;;;;;;20.85;5.07;;;;;;;11.26;40.27;101463.84;5093490;28;19920;-56
2022/01/30 11:54:48;;;;;;;21.23;5.22;;;;;;;11.36;40.62;101461.78;5092805;28;20071;-56
2022/01/30 11:57:46;;;;;;;20.17;5.18;;;;;;;11.28;41.39;101469.97;5087404;28;20489;-55
2022/01/30 12:00:35;;;;;;;19.15;5.13;;;;;;;11.37;40.71;101463.44;5101801;28;20055;-56
2022/01/30 12:03:32;;;;;;;18.67;4.72;;;;;;;11.28;41.03;101465.22;5113452;28;20062;-55
2022/01/30 12:06:29;;;;;;;19.77;5.07;;;;;;;11.29;41.06;101466.03;5039514;28;20056;-56
2022/01/30 12:08:57;;;;;;;20.45;5.10;;;;;;;11.20;41.26;101468.63;5093898;28;20373;-53
2022/01/30 12:11:55;;;;;;;17.92;5.18;;;;;;;11.12;41.50;101466.47;5092888;28;20054;-58